sensor_id;sensor_type;location;lat;lon;timestamp;P1;durP1;ratioP1;P2;durP2;ratioP2
58208;SDS011;44006;52.028;4.696;2022-10-17T00:00:30;15.43;;;9.87;;
58208;SDS011;44006;52.028;4.696;2022-10-17T00:02:56;14.50;;;9.63;;
58208;SDS011;44006;52.028;4.696;2022-10-17T00:05:22;16.42;;;10.88;;
58208;SDS011;44006;52.028;4.696;2022-10-17T00:07:48;13.10;;;9.85;;
58208;SDS011;44006;52.028;4.696;2022-10-17T00:10:15;14.05;;;10.50;;
58208;SDS011;44006;52.028;4.696;2022-10-17T00:12:41;18.05;;;10.63;;
58208;SDS011;44006;52.028;4.696;2022-10-17T00:15:06;14.10;;;9.38;;
58208;SDS011;44006;52.028;4.696;2022-10-17T00:17:33;15.82;;;10.10;;
58208;SDS011;44006;52.028;4.696;2022-10-17T00:19:59;13.80;;;9.82;;
58208;SDS011;44006;52.028;4.696;2022-10-17T00:22:24;17.67;;;10.55;;
58208;SDS011;44006;52.028;4.696;2022-10-17T00:24:49;12.55;;;10.30;;
58208;SDS011;44006;52.028;4.696;2022-10-17T00:27:15;20.08;;;10.82;;
58208;SDS011;44006;52.028;4.696;2022-10-17T00:29:40;16.42;;;10.57;;
58208;SDS011;44006;52.028;4.696;2022-10-17T00:32:05;15.95;;;11.45;;
58208;SDS011;44006;52.028;4.696;2022-10-17T00:34:30;16.77;;;10.70;;
58208;SDS011;44006;52.028;4.696;2022-10-17T00:36:56;21.57;;;11.03;;
58208;SDS011;44006;52.028;4.696;2022-10-17T00:39:21;17.27;;;10.75;;
58208;SDS011;44006;52.028;4.696;2022-10-17T00:41:46;15.05;;;10.70;;
58208;SDS011;44006;52.028;4.696;2022-10-17T00:46:56;17.58;;;11.48;;
58208;SDS011;44006;52.028;4.696;2022-10-17T00:49:22;19.00;;;11.70;;
58208;SDS011;44006;52.028;4.696;2022-10-17T00:51:50;21.13;;;11.63;;
58208;SDS011;44006;52.028;4.696;2022-10-17T00:54:17;20.20;;;12.82;;
58208;SDS011;44006;52.028;4.696;2022-10-17T00:56:44;16.08;;;11.65;;
58208;SDS011;44006;52.028;4.696;2022-10-17T00:59:11;18.58;;;11.82;;
58208;SDS011;44006;52.028;4.696;2022-10-17T01:01:38;21.48;;;12.52;;
58208;SDS011;44006;52.028;4.696;2022-10-17T01:04:04;18.05;;;12.52;;
58208;SDS011;44006;52.028;4.696;2022-10-17T01:06:29;16.70;;;12.48;;
58208;SDS011;44006;52.028;4.696;2022-10-17T01:08:55;20.15;;;12.45;;
58208;SDS011;44006;52.028;4.696;2022-10-17T01:13:53;20.25;;;12.63;;
58208;SDS011;44006;52.028;4.696;2022-10-17T01:34:01;63.97;;;50.25;;
58208;SDS011;44006;52.028;4.696;2022-10-17T01:38:57;32.22;;;24.17;;
58208;SDS011;44006;52.028;4.696;2022-10-17T01:43:54;27.88;;;17.42;;
58208;SDS011;44006;52.028;4.696;2022-10-17T01:46:27;23.92;;;14.88;;
58208;SDS011;44006;52.028;4.696;2022-10-17T01:48:54;19.15;;;15.05;;
58208;SDS011;44006;52.028;4.696;2022-10-17T01:51:27;22.45;;;14.23;;
58208;SDS011;44006;52.028;4.696;2022-10-17T01:53:57;23.20;;;15.38;;
58208;SDS011;44006;52.028;4.696;2022-10-17T01:56:24;19.35;;;13.55;;
58208;SDS011;44006;52.028;4.696;2022-10-17T01:58:51;19.20;;;13.93;;
58208;SDS011;44006;52.028;4.696;2022-10-17T02:01:17;23.55;;;14.23;;
58208;SDS011;44006;52.028;4.696;2022-10-17T02:03:43;21.35;;;14.05;;
58208;SDS011;44006;52.028;4.696;2022-10-17T02:06:09;17.80;;;13.52;;
58208;SDS011;44006;52.028;4.696;2022-10-17T02:08:44;18.67;;;13.85;;
58208;SDS011;44006;52.028;4.696;2022-10-17T02:11:23;22.77;;;14.60;;
58208;SDS011;44006;52.028;4.696;2022-10-17T02:16:47;19.02;;;13.45;;
58208;SDS011;44006;52.028;4.696;2022-10-17T02:24:19;19.50;;;14.15;;
58208;SDS011;44006;52.028;4.696;2022-10-17T02:29:30;19.48;;;13.48;;
58208;SDS011;44006;52.028;4.696;2022-10-17T02:32:04;21.30;;;13.90;;
58208;SDS011;44006;52.028;4.696;2022-10-17T02:34:32;22.17;;;14.18;;
58208;SDS011;44006;52.028;4.696;2022-10-17T02:36:59;21.83;;;13.10;;
58208;SDS011;44006;52.028;4.696;2022-10-17T02:39:26;19.85;;;14.02;;
58208;SDS011;44006;52.028;4.696;2022-10-17T02:41:52;20.65;;;14.43;;
58208;SDS011;44006;52.028;4.696;2022-10-17T02:44:18;20.83;;;13.63;;
58208;SDS011;44006;52.028;4.696;2022-10-17T02:46:46;19.92;;;13.95;;
58208;SDS011;44006;52.028;4.696;2022-10-17T02:49:15;19.48;;;13.90;;
58208;SDS011;44006;52.028;4.696;2022-10-17T02:57:36;21.80;;;14.55;;
58208;SDS011;44006;52.028;4.696;2022-10-17T03:00:03;18.60;;;14.65;;
58208;SDS011;44006;52.028;4.696;2022-10-17T03:02:36;22.45;;;13.57;;
58208;SDS011;44006;52.028;4.696;2022-10-17T03:05:02;20.50;;;14.60;;
58208;SDS011;44006;52.028;4.696;2022-10-17T03:07:27;21.75;;;13.90;;
58208;SDS011;44006;52.028;4.696;2022-10-17T03:09:52;17.90;;;14.37;;
58208;SDS011;44006;52.028;4.696;2022-10-17T03:12:18;20.10;;;14.50;;
58208;SDS011;44006;52.028;4.696;2022-10-17T03:14:43;22.58;;;14.50;;
58208;SDS011;44006;52.028;4.696;2022-10-17T03:17:08;19.77;;;14.00;;
58208;SDS011;44006;52.028;4.696;2022-10-17T03:19:34;20.73;;;14.70;;
58208;SDS011;44006;52.028;4.696;2022-10-17T03:22:00;21.63;;;14.68;;
58208;SDS011;44006;52.028;4.696;2022-10-17T03:24:26;19.83;;;14.85;;
58208;SDS011;44006;52.028;4.696;2022-10-17T03:26:51;17.73;;;14.23;;
58208;SDS011;44006;52.028;4.696;2022-10-17T03:29:16;21.98;;;15.48;;
58208;SDS011;44006;52.028;4.696;2022-10-17T03:31:41;25.57;;;15.80;;
58208;SDS011;44006;52.028;4.696;2022-10-17T03:34:06;21.05;;;15.20;;
58208;SDS011;44006;52.028;4.696;2022-10-17T03:36:33;20.20;;;15.63;;
58208;SDS011;44006;52.028;4.696;2022-10-17T03:38:58;20.75;;;14.88;;
58208;SDS011;44006;52.028;4.696;2022-10-17T03:41:23;20.73;;;14.83;;
58208;SDS011;44006;52.028;4.696;2022-10-17T03:43:48;20.83;;;14.90;;
58208;SDS011;44006;52.028;4.696;2022-10-17T03:46:13;18.40;;;14.20;;
58208;SDS011;44006;52.028;4.696;2022-10-17T03:48:40;19.38;;;13.73;;
58208;SDS011;44006;52.028;4.696;2022-10-17T03:51:06;18.95;;;14.05;;
58208;SDS011;44006;52.028;4.696;2022-10-17T03:53:32;21.20;;;13.68;;
58208;SDS011;44006;52.028;4.696;2022-10-17T03:56:07;20.25;;;14.38;;
58208;SDS011;44006;52.028;4.696;2022-10-17T03:58:33;18.02;;;13.45;;
58208;SDS011;44006;52.028;4.696;2022-10-17T04:01:02;20.13;;;14.43;;
58208;SDS011;44006;52.028;4.696;2022-10-17T04:03:27;22.52;;;14.63;;
58208;SDS011;44006;52.028;4.696;2022-10-17T04:05:56;21.65;;;14.38;;
58208;SDS011;44006;52.028;4.696;2022-10-17T04:08:22;17.92;;;13.60;;
58208;SDS011;44006;52.028;4.696;2022-10-17T04:10:47;17.70;;;13.43;;
58208;SDS011;44006;52.028;4.696;2022-10-17T04:13:12;18.60;;;13.40;;
58208;SDS011;44006;52.028;4.696;2022-10-17T04:15:38;19.92;;;14.07;;
58208;SDS011;44006;52.028;4.696;2022-10-17T04:18:03;21.10;;;12.73;;
58208;SDS011;44006;52.028;4.696;2022-10-17T04:20:29;21.27;;;13.63;;
58208;SDS011;44006;52.028;4.696;2022-10-17T04:22:55;17.13;;;12.98;;
58208;SDS011;44006;52.028;4.696;2022-10-17T04:25:20;17.20;;;13.43;;
58208;SDS011;44006;52.028;4.696;2022-10-17T04:27:46;19.02;;;13.02;;
58208;SDS011;44006;52.028;4.696;2022-10-17T04:30:13;17.83;;;13.00;;
58208;SDS011;44006;52.028;4.696;2022-10-17T04:32:38;21.27;;;12.45;;
58208;SDS011;44006;52.028;4.696;2022-10-17T04:35:04;20.02;;;12.73;;
58208;SDS011;44006;52.028;4.696;2022-10-17T04:37:30;20.00;;;13.27;;
58208;SDS011;44006;52.028;4.696;2022-10-17T04:39:55;17.48;;;12.48;;
58208;SDS011;44006;52.028;4.696;2022-10-17T04:42:20;15.88;;;11.48;;
58208;SDS011;44006;52.028;4.696;2022-10-17T04:44:45;21.08;;;12.15;;
58208;SDS011;44006;52.028;4.696;2022-10-17T04:47:11;15.70;;;11.80;;
58208;SDS011;44006;52.028;4.696;2022-10-17T04:49:37;17.38;;;12.63;;
58208;SDS011;44006;52.028;4.696;2022-10-17T04:52:02;17.33;;;12.05;;
58208;SDS011;44006;52.028;4.696;2022-10-17T04:54:29;17.17;;;11.60;;
58208;SDS011;44006;52.028;4.696;2022-10-17T04:56:54;19.30;;;11.98;;
58208;SDS011;44006;52.028;4.696;2022-10-17T04:59:20;17.67;;;11.73;;
58208;SDS011;44006;52.028;4.696;2022-10-17T05:01:47;20.05;;;12.48;;
58208;SDS011;44006;52.028;4.696;2022-10-17T05:04:12;19.25;;;12.30;;
58208;SDS011;44006;52.028;4.696;2022-10-17T05:06:37;19.90;;;12.98;;
58208;SDS011;44006;52.028;4.696;2022-10-17T05:09:03;16.83;;;12.43;;
58208;SDS011;44006;52.028;4.696;2022-10-17T05:11:29;17.60;;;12.20;;
58208;SDS011;44006;52.028;4.696;2022-10-17T05:13:55;19.30;;;12.18;;
58208;SDS011;44006;52.028;4.696;2022-10-17T05:16:21;16.60;;;12.38;;
58208;SDS011;44006;52.028;4.696;2022-10-17T05:18:51;17.25;;;12.30;;
58208;SDS011;44006;52.028;4.696;2022-10-17T05:21:16;18.20;;;12.05;;
58208;SDS011;44006;52.028;4.696;2022-10-17T05:23:43;19.88;;;12.63;;
58208;SDS011;44006;52.028;4.696;2022-10-17T05:26:08;19.40;;;13.20;;
58208;SDS011;44006;52.028;4.696;2022-10-17T05:28:35;17.92;;;12.85;;
58208;SDS011;44006;52.028;4.696;2022-10-17T05:31:02;15.82;;;12.30;;
58208;SDS011;44006;52.028;4.696;2022-10-17T05:33:27;16.35;;;12.65;;
58208;SDS011;44006;52.028;4.696;2022-10-17T05:35:53;18.25;;;12.50;;
58208;SDS011;44006;52.028;4.696;2022-10-17T05:38:19;18.38;;;11.98;;
58208;SDS011;44006;52.028;4.696;2022-10-17T05:40:44;20.83;;;11.82;;
58208;SDS011;44006;52.028;4.696;2022-10-17T05:43:10;17.95;;;12.20;;
58208;SDS011;44006;52.028;4.696;2022-10-17T05:45:35;17.75;;;12.15;;
58208;SDS011;44006;52.028;4.696;2022-10-17T05:48:01;16.92;;;12.75;;
58208;SDS011;44006;52.028;4.696;2022-10-17T05:50:26;16.10;;;11.50;;
58208;SDS011;44006;52.028;4.696;2022-10-17T05:52:53;17.67;;;12.23;;
58208;SDS011;44006;52.028;4.696;2022-10-17T05:55:18;19.00;;;12.35;;
58208;SDS011;44006;52.028;4.696;2022-10-17T05:57:44;17.53;;;12.80;;
58208;SDS011;44006;52.028;4.696;2022-10-17T06:00:09;18.35;;;12.77;;
58208;SDS011;44006;52.028;4.696;2022-10-17T06:02:35;19.58;;;11.98;;
58208;SDS011;44006;52.028;4.696;2022-10-17T06:05:00;17.83;;;13.17;;
58208;SDS011;44006;52.028;4.696;2022-10-17T06:07:25;18.40;;;12.47;;
58208;SDS011;44006;52.028;4.696;2022-10-17T06:09:50;19.80;;;12.43;;
58208;SDS011;44006;52.028;4.696;2022-10-17T06:12:16;21.00;;;13.10;;
58208;SDS011;44006;52.028;4.696;2022-10-17T06:14:41;21.45;;;13.00;;
58208;SDS011;44006;52.028;4.696;2022-10-17T06:17:07;23.23;;;12.52;;
58208;SDS011;44006;52.028;4.696;2022-10-17T06:19:32;21.17;;;12.88;;
58208;SDS011;44006;52.028;4.696;2022-10-17T06:21:57;20.03;;;13.10;;
58208;SDS011;44006;52.028;4.696;2022-10-17T06:24:23;16.08;;;11.48;;
58208;SDS011;44006;52.028;4.696;2022-10-17T06:26:48;23.48;;;13.18;;
58208;SDS011;44006;52.028;4.696;2022-10-17T06:29:14;18.48;;;12.95;;
58208;SDS011;44006;52.028;4.696;2022-10-17T06:31:40;17.95;;;12.48;;
58208;SDS011;44006;52.028;4.696;2022-10-17T06:34:05;20.65;;;12.38;;
58208;SDS011;44006;52.028;4.696;2022-10-17T06:36:31;20.00;;;11.50;;
58208;SDS011;44006;52.028;4.696;2022-10-17T06:38:57;22.77;;;12.63;;
58208;SDS011;44006;52.028;4.696;2022-10-17T06:41:23;18.83;;;11.60;;
58208;SDS011;44006;52.028;4.696;2022-10-17T06:43:49;18.90;;;11.63;;
58208;SDS011;44006;52.028;4.696;2022-10-17T06:46:15;18.38;;;11.65;;
58208;SDS011;44006;52.028;4.696;2022-10-17T06:48:40;19.27;;;12.45;;
58208;SDS011;44006;52.028;4.696;2022-10-17T06:51:07;24.23;;;12.10;;
58208;SDS011;44006;52.028;4.696;2022-10-17T06:53:39;15.85;;;11.68;;
58208;SDS011;44006;52.028;4.696;2022-10-17T06:56:05;16.73;;;11.77;;
58208;SDS011;44006;52.028;4.696;2022-10-17T06:58:31;18.88;;;11.80;;
58208;SDS011;44006;52.028;4.696;2022-10-17T07:01:00;20.58;;;12.48;;
58208;SDS011;44006;52.028;4.696;2022-10-17T07:03:26;18.38;;;11.95;;
58208;SDS011;44006;52.028;4.696;2022-10-17T07:05:52;19.92;;;12.50;;
58208;SDS011;44006;52.028;4.696;2022-10-17T07:08:17;21.00;;;12.95;;
58208;SDS011;44006;52.028;4.696;2022-10-17T07:10:42;18.52;;;11.75;;
58208;SDS011;44006;52.028;4.696;2022-10-17T07:13:08;18.45;;;12.20;;
58208;SDS011;44006;52.028;4.696;2022-10-17T07:15:33;17.73;;;11.32;;
58208;SDS011;44006;52.028;4.696;2022-10-17T07:17:58;21.73;;;12.37;;
58208;SDS011;44006;52.028;4.696;2022-10-17T07:20:24;22.20;;;12.17;;
58208;SDS011;44006;52.028;4.696;2022-10-17T07:22:51;21.13;;;12.30;;
58208;SDS011;44006;52.028;4.696;2022-10-17T07:25:16;20.88;;;11.90;;
58208;SDS011;44006;52.028;4.696;2022-10-17T07:27:41;17.63;;;11.13;;
58208;SDS011;44006;52.028;4.696;2022-10-17T07:30:06;20.53;;;13.30;;
58208;SDS011;44006;52.028;4.696;2022-10-17T07:32:32;16.02;;;12.32;;
58208;SDS011;44006;52.028;4.696;2022-10-17T07:34:57;25.93;;;13.67;;
58208;SDS011;44006;52.028;4.696;2022-10-17T07:37:22;23.93;;;14.43;;
58208;SDS011;44006;52.028;4.696;2022-10-17T07:39:47;19.23;;;14.10;;
58208;SDS011;44006;52.028;4.696;2022-10-17T07:42:13;22.63;;;13.77;;
58208;SDS011;44006;52.028;4.696;2022-10-17T07:44:38;22.02;;;13.15;;
58208;SDS011;44006;52.028;4.696;2022-10-17T07:47:04;19.13;;;12.50;;
58208;SDS011;44006;52.028;4.696;2022-10-17T07:49:29;23.20;;;12.95;;
58208;SDS011;44006;52.028;4.696;2022-10-17T07:51:55;25.02;;;13.93;;
58208;SDS011;44006;52.028;4.696;2022-10-17T07:54:20;22.13;;;12.57;;
58208;SDS011;44006;52.028;4.696;2022-10-17T07:56:45;25.93;;;13.47;;
58208;SDS011;44006;52.028;4.696;2022-10-17T07:59:14;20.75;;;13.15;;
58208;SDS011;44006;52.028;4.696;2022-10-17T08:01:40;21.13;;;13.95;;
58208;SDS011;44006;52.028;4.696;2022-10-17T08:04:06;34.15;;;14.60;;
58208;SDS011;44006;52.028;4.696;2022-10-17T08:06:31;19.38;;;13.00;;
58208;SDS011;44006;52.028;4.696;2022-10-17T08:08:56;24.37;;;12.30;;
58208;SDS011;44006;52.028;4.696;2022-10-17T08:11:23;21.17;;;13.73;;
58208;SDS011;44006;52.028;4.696;2022-10-17T08:13:49;22.95;;;13.98;;
58208;SDS011;44006;52.028;4.696;2022-10-17T08:16:14;23.55;;;15.40;;
58208;SDS011;44006;52.028;4.696;2022-10-17T08:18:40;19.90;;;13.50;;
58208;SDS011;44006;52.028;4.696;2022-10-17T08:21:06;23.45;;;13.65;;
58208;SDS011;44006;52.028;4.696;2022-10-17T08:23:32;20.10;;;13.57;;
58208;SDS011;44006;52.028;4.696;2022-10-17T08:25:57;26.75;;;13.30;;
58208;SDS011;44006;52.028;4.696;2022-10-17T08:28:23;28.67;;;13.15;;
58208;SDS011;44006;52.028;4.696;2022-10-17T08:30:48;22.88;;;12.52;;
58208;SDS011;44006;52.028;4.696;2022-10-17T08:33:13;23.70;;;12.85;;
58208;SDS011;44006;52.028;4.696;2022-10-17T08:35:38;36.23;;;14.37;;
58208;SDS011;44006;52.028;4.696;2022-10-17T08:38:05;29.87;;;12.27;;
58208;SDS011;44006;52.028;4.696;2022-10-17T08:40:31;22.23;;;11.85;;
58208;SDS011;44006;52.028;4.696;2022-10-17T08:45:35;21.00;;;12.40;;
58208;SDS011;44006;52.028;4.696;2022-10-17T08:48:03;18.73;;;12.23;;
58208;SDS011;44006;52.028;4.696;2022-10-17T08:50:32;30.15;;;12.63;;
58208;SDS011;44006;52.028;4.696;2022-10-17T08:55:34;19.33;;;12.68;;
58208;SDS011;44006;52.028;4.696;2022-10-17T08:58:00;19.05;;;11.85;;
58208;SDS011;44006;52.028;4.696;2022-10-17T09:00:25;24.40;;;13.02;;
58208;SDS011;44006;52.028;4.696;2022-10-17T09:05:32;32.22;;;13.15;;
58208;SDS011;44006;52.028;4.696;2022-10-17T09:17:51;26.27;;;15.13;;
58208;SDS011;44006;52.028;4.696;2022-10-17T09:23:00;28.50;;;15.02;;
58208;SDS011;44006;52.028;4.696;2022-10-17T09:25:26;28.83;;;15.52;;
58208;SDS011;44006;52.028;4.696;2022-10-17T09:27:53;29.33;;;14.25;;
58208;SDS011;44006;52.028;4.696;2022-10-17T09:32:57;32.20;;;16.20;;
58208;SDS011;44006;52.028;4.696;2022-10-17T09:35:22;24.35;;;15.80;;
58208;SDS011;44006;52.028;4.696;2022-10-17T09:37:48;28.63;;;15.52;;
58208;SDS011;44006;52.028;4.696;2022-10-17T09:40:25;24.17;;;16.25;;
58208;SDS011;44006;52.028;4.696;2022-10-17T09:42:51;31.75;;;15.20;;
58208;SDS011;44006;52.028;4.696;2022-10-17T09:45:17;30.85;;;14.75;;
58208;SDS011;44006;52.028;4.696;2022-10-17T09:47:48;32.72;;;15.80;;
58208;SDS011;44006;52.028;4.696;2022-10-17T09:50:19;24.67;;;14.85;;
58208;SDS011;44006;52.028;4.696;2022-10-17T09:52:45;20.02;;;13.23;;
58208;SDS011;44006;52.028;4.696;2022-10-17T09:55:28;25.00;;;13.32;;
58208;SDS011;44006;52.028;4.696;2022-10-17T09:57:57;25.25;;;14.60;;
58208;SDS011;44006;52.028;4.696;2022-10-17T10:00:24;17.00;;;12.52;;
58208;SDS011;44006;52.028;4.696;2022-10-17T10:02:56;20.42;;;13.02;;
58208;SDS011;44006;52.028;4.696;2022-10-17T10:05:32;22.90;;;14.07;;
58208;SDS011;44006;52.028;4.696;2022-10-17T10:08:04;21.45;;;14.48;;
58208;SDS011;44006;52.028;4.696;2022-10-17T10:10:31;22.85;;;12.98;;
58208;SDS011;44006;52.028;4.696;2022-10-17T10:13:14;21.40;;;13.07;;
58208;SDS011;44006;52.028;4.696;2022-10-17T10:15:41;21.80;;;13.38;;
58208;SDS011;44006;52.028;4.696;2022-10-17T10:23:28;21.30;;;12.32;;
58208;SDS011;44006;52.028;4.696;2022-10-17T10:25:55;21.95;;;12.15;;
58208;SDS011;44006;52.028;4.696;2022-10-17T10:28:22;19.50;;;12.48;;
58208;SDS011;44006;52.028;4.696;2022-10-17T10:30:49;30.70;;;12.38;;
58208;SDS011;44006;52.028;4.696;2022-10-17T10:33:15;23.90;;;12.07;;
58208;SDS011;44006;52.028;4.696;2022-10-17T10:35:42;15.60;;;11.50;;
58208;SDS011;44006;52.028;4.696;2022-10-17T10:38:15;22.75;;;11.65;;
58208;SDS011;44006;52.028;4.696;2022-10-17T10:40:45;18.70;;;10.98;;
58208;SDS011;44006;52.028;4.696;2022-10-17T10:43:21;19.75;;;10.90;;
58208;SDS011;44006;52.028;4.696;2022-10-17T10:45:48;12.45;;;9.93;;
58208;SDS011;44006;52.028;4.696;2022-10-17T10:48:17;18.73;;;9.90;;
58208;SDS011;44006;52.028;4.696;2022-10-17T11:01:38;13.85;;;7.97;;
58208;SDS011;44006;52.028;4.696;2022-10-17T11:06:50;19.20;;;7.90;;
58208;SDS011;44006;52.028;4.696;2022-10-17T11:11:46;16.03;;;8.83;;
58208;SDS011;44006;52.028;4.696;2022-10-17T11:19:20;17.07;;;8.70;;
58208;SDS011;44006;52.028;4.696;2022-10-17T11:21:58;13.90;;;9.25;;
58208;SDS011;44006;52.028;4.696;2022-10-17T11:24:33;12.68;;;9.30;;
58208;SDS011;44006;52.028;4.696;2022-10-17T11:27:02;11.57;;;8.68;;
58208;SDS011;44006;52.028;4.696;2022-10-17T11:29:29;17.75;;;7.93;;
58208;SDS011;44006;52.028;4.696;2022-10-17T11:31:55;12.73;;;7.95;;
58208;SDS011;44006;52.028;4.696;2022-10-17T11:34:22;12.68;;;7.22;;
58208;SDS011;44006;52.028;4.696;2022-10-17T11:36:49;14.15;;;6.97;;
58208;SDS011;44006;52.028;4.696;2022-10-17T11:39:18;10.73;;;7.43;;
58208;SDS011;44006;52.028;4.696;2022-10-17T11:41:48;15.60;;;8.82;;
58208;SDS011;44006;52.028;4.696;2022-10-17T11:46:43;15.95;;;9.77;;
58208;SDS011;44006;52.028;4.696;2022-10-17T11:49:10;15.25;;;10.07;;
58208;SDS011;44006;52.028;4.696;2022-10-17T11:54:39;16.15;;;9.80;;
58208;SDS011;44006;52.028;4.696;2022-10-17T11:57:09;16.10;;;10.50;;
58208;SDS011;44006;52.028;4.696;2022-10-17T12:02:08;13.88;;;10.13;;
58208;SDS011;44006;52.028;4.696;2022-10-17T12:07:07;15.77;;;9.75;;
58208;SDS011;44006;52.028;4.696;2022-10-17T12:12:04;14.85;;;11.18;;
58208;SDS011;44006;52.028;4.696;2022-10-17T12:14:37;17.42;;;9.75;;
58208;SDS011;44006;52.028;4.696;2022-10-17T12:19:50;19.30;;;9.77;;
58208;SDS011;44006;52.028;4.696;2022-10-17T12:24:51;13.75;;;9.57;;
58208;SDS011;44006;52.028;4.696;2022-10-17T12:30:05;13.68;;;8.60;;
58208;SDS011;44006;52.028;4.696;2022-10-17T12:35:23;12.93;;;8.82;;
58208;SDS011;44006;52.028;4.696;2022-10-17T12:45:55;14.35;;;8.32;;
58208;SDS011;44006;52.028;4.696;2022-10-17T12:56:13;13.40;;;8.85;;
58208;SDS011;44006;52.028;4.696;2022-10-17T12:58:42;20.52;;;10.95;;
58208;SDS011;44006;52.028;4.696;2022-10-17T13:01:08;15.48;;;10.60;;
58208;SDS011;44006;52.028;4.696;2022-10-17T13:03:42;16.45;;;10.23;;
58208;SDS011;44006;52.028;4.696;2022-10-17T13:06:11;18.70;;;11.45;;
58208;SDS011;44006;52.028;4.696;2022-10-17T13:08:41;17.95;;;11.40;;
58208;SDS011;44006;52.028;4.696;2022-10-17T13:11:07;23.30;;;11.75;;
58208;SDS011;44006;52.028;4.696;2022-10-17T13:13:36;21.92;;;11.85;;
58208;SDS011;44006;52.028;4.696;2022-10-17T13:16:03;19.55;;;11.80;;
58208;SDS011;44006;52.028;4.696;2022-10-17T13:18:28;23.40;;;12.25;;
58208;SDS011;44006;52.028;4.696;2022-10-17T13:20:57;26.20;;;11.30;;
58208;SDS011;44006;52.028;4.696;2022-10-17T13:23:24;22.50;;;11.98;;
58208;SDS011;44006;52.028;4.696;2022-10-17T13:28:27;21.80;;;11.40;;
58208;SDS011;44006;52.028;4.696;2022-10-17T13:30:54;23.42;;;11.27;;
58208;SDS011;44006;52.028;4.696;2022-10-17T13:33:31;19.10;;;11.45;;
58208;SDS011;44006;52.028;4.696;2022-10-17T13:35:56;15.80;;;9.95;;
58208;SDS011;44006;52.028;4.696;2022-10-17T13:38:23;16.25;;;9.75;;
58208;SDS011;44006;52.028;4.696;2022-10-17T13:40:50;16.08;;;10.10;;
58208;SDS011;44006;52.028;4.696;2022-10-17T13:43:17;18.77;;;9.10;;
58208;SDS011;44006;52.028;4.696;2022-10-17T13:45:48;13.55;;;8.20;;
58208;SDS011;44006;52.028;4.696;2022-10-17T13:48:25;12.85;;;8.02;;
58208;SDS011;44006;52.028;4.696;2022-10-17T13:50:54;14.30;;;8.10;;
58208;SDS011;44006;52.028;4.696;2022-10-17T13:58:20;11.40;;;6.68;;
58208;SDS011;44006;52.028;4.696;2022-10-17T14:00:47;12.88;;;6.47;;
58208;SDS011;44006;52.028;4.696;2022-10-17T14:03:15;22.00;;;6.63;;
58208;SDS011;44006;52.028;4.696;2022-10-17T14:08:24;11.07;;;6.13;;
58208;SDS011;44006;52.028;4.696;2022-10-17T14:10:49;17.17;;;7.18;;
58208;SDS011;44006;52.028;4.696;2022-10-17T14:13:25;18.15;;;7.05;;
58208;SDS011;44006;52.028;4.696;2022-10-17T14:15:52;11.23;;;7.20;;
58208;SDS011;44006;52.028;4.696;2022-10-17T14:18:23;18.13;;;8.25;;
58208;SDS011;44006;52.028;4.696;2022-10-17T14:20:49;18.38;;;7.20;;
58208;SDS011;44006;52.028;4.696;2022-10-17T14:23:28;16.25;;;7.93;;
58208;SDS011;44006;52.028;4.696;2022-10-17T14:28:30;13.80;;;7.45;;
58208;SDS011;44006;52.028;4.696;2022-10-17T14:31:08;9.35;;;6.65;;
58208;SDS011;44006;52.028;4.696;2022-10-17T14:33:36;14.50;;;7.18;;
58208;SDS011;44006;52.028;4.696;2022-10-17T14:36:02;11.65;;;6.50;;
58208;SDS011;44006;52.028;4.696;2022-10-17T14:38:29;17.40;;;6.35;;
58208;SDS011;44006;52.028;4.696;2022-10-17T14:41:00;12.20;;;6.05;;
58208;SDS011;44006;52.028;4.696;2022-10-17T14:45:51;13.15;;;5.60;;
58208;SDS011;44006;52.028;4.696;2022-10-17T14:48:20;11.73;;;6.43;;
58208;SDS011;44006;52.028;4.696;2022-10-17T14:53:37;11.52;;;6.00;;
58208;SDS011;44006;52.028;4.696;2022-10-17T14:56:25;13.57;;;6.18;;
58208;SDS011;44006;52.028;4.696;2022-10-17T14:58:48;14.30;;;6.10;;
58208;SDS011;44006;52.028;4.696;2022-10-17T15:01:15;13.75;;;5.97;;
58208;SDS011;44006;52.028;4.696;2022-10-17T15:03:41;12.38;;;6.20;;
58208;SDS011;44006;52.028;4.696;2022-10-17T15:06:14;23.63;;;5.70;;
58208;SDS011;44006;52.028;4.696;2022-10-17T15:08:40;11.27;;;6.15;;
58208;SDS011;44006;52.028;4.696;2022-10-17T15:11:07;12.57;;;6.00;;
58208;SDS011;44006;52.028;4.696;2022-10-17T15:13:33;11.02;;;4.95;;
58208;SDS011;44006;52.028;4.696;2022-10-17T15:15:58;13.77;;;5.93;;
58208;SDS011;44006;52.028;4.696;2022-10-17T15:18:24;11.65;;;5.47;;
58208;SDS011;44006;52.028;4.696;2022-10-17T15:20:49;12.70;;;5.40;;
58208;SDS011;44006;52.028;4.696;2022-10-17T15:23:14;17.65;;;5.32;;
58208;SDS011;44006;52.028;4.696;2022-10-17T15:25:39;17.20;;;5.88;;
58208;SDS011;44006;52.028;4.696;2022-10-17T15:28:05;11.93;;;5.10;;
58208;SDS011;44006;52.028;4.696;2022-10-17T15:30:31;20.45;;;6.55;;
58208;SDS011;44006;52.028;4.696;2022-10-17T15:32:56;16.63;;;6.05;;
58208;SDS011;44006;52.028;4.696;2022-10-17T15:35:22;13.07;;;5.65;;
58208;SDS011;44006;52.028;4.696;2022-10-17T15:37:47;11.77;;;5.28;;
58208;SDS011;44006;52.028;4.696;2022-10-17T15:40:15;12.27;;;5.00;;
58208;SDS011;44006;52.028;4.696;2022-10-17T15:42:40;11.82;;;5.03;;
58208;SDS011;44006;52.028;4.696;2022-10-17T15:45:07;16.45;;;4.85;;
58208;SDS011;44006;52.028;4.696;2022-10-17T15:47:33;11.75;;;5.13;;
58208;SDS011;44006;52.028;4.696;2022-10-17T15:49:58;11.20;;;4.72;;
58208;SDS011;44006;52.028;4.696;2022-10-17T15:52:24;12.07;;;4.68;;
58208;SDS011;44006;52.028;4.696;2022-10-17T15:54:50;19.33;;;5.32;;
58208;SDS011;44006;52.028;4.696;2022-10-17T15:57:20;11.63;;;4.40;;
58208;SDS011;44006;52.028;4.696;2022-10-17T15:59:49;13.20;;;4.70;;
58208;SDS011;44006;52.028;4.696;2022-10-17T16:02:15;8.65;;;4.53;;
58208;SDS011;44006;52.028;4.696;2022-10-17T16:04:42;21.27;;;4.90;;
58208;SDS011;44006;52.028;4.696;2022-10-17T16:07:07;15.70;;;4.90;;
58208;SDS011;44006;52.028;4.696;2022-10-17T16:09:33;12.43;;;4.82;;
58208;SDS011;44006;52.028;4.696;2022-10-17T16:11:59;8.63;;;4.50;;
58208;SDS011;44006;52.028;4.696;2022-10-17T16:14:24;10.02;;;4.47;;
58208;SDS011;44006;52.028;4.696;2022-10-17T16:16:50;13.10;;;3.90;;
58208;SDS011;44006;52.028;4.696;2022-10-17T16:19:15;16.53;;;5.20;;
58208;SDS011;44006;52.028;4.696;2022-10-17T16:21:41;18.83;;;5.57;;
58208;SDS011;44006;52.028;4.696;2022-10-17T16:24:08;22.55;;;5.30;;
58208;SDS011;44006;52.028;4.696;2022-10-17T16:26:34;14.10;;;4.53;;
58208;SDS011;44006;52.028;4.696;2022-10-17T16:28:59;8.70;;;4.43;;
58208;SDS011;44006;52.028;4.696;2022-10-17T16:31:29;14.52;;;5.18;;
58208;SDS011;44006;52.028;4.696;2022-10-17T16:33:55;10.05;;;6.47;;
58208;SDS011;44006;52.028;4.696;2022-10-17T16:36:21;23.45;;;19.73;;
58208;SDS011;44006;52.028;4.696;2022-10-17T16:38:46;30.05;;;18.27;;
58208;SDS011;44006;52.028;4.696;2022-10-17T16:43:44;26.08;;;20.10;;
58208;SDS011;44006;52.028;4.696;2022-10-17T16:46:09;26.27;;;16.47;;
58208;SDS011;44006;52.028;4.696;2022-10-17T16:48:34;22.35;;;13.15;;
58208;SDS011;44006;52.028;4.696;2022-10-17T16:51:00;19.17;;;13.03;;
58208;SDS011;44006;52.028;4.696;2022-10-17T16:53:26;12.20;;;7.20;;
58208;SDS011;44006;52.028;4.696;2022-10-17T16:56:03;12.10;;;7.33;;
58208;SDS011;44006;52.028;4.696;2022-10-17T16:58:29;14.20;;;7.03;;